17 de maio de 2022

Tempo Código Clima Temp. Visão Nuvens Vento METAR/SPECI
16:20
V
20 °C 10 km+ - 060°   060° 4 kt METAR EDDG 171420Z 06004KT 340V130 CAVOK 20/14 Q1021 NOSIG
15:50
V
19 °C 10 km+ - 020°   020° 6 kt METAR EDDG 171350Z 02006KT 310V080 CAVOK 19/14 Q1021 NOSIG
15:20
V
19 °C 10 km+ 4.900 ft 010°   010° 4 kt METAR EDDG 171320Z 01004KT 310V050 9999 BKN049 19/14 Q1021 NOSIG
14:50
V
18 °C 10 km+ 4.400 ft Var   Var 2 kt METAR EDDG 171250Z VRB02KT 9999 BKN044 18/13 Q1021 NOSIG
14:20
V
19 °C 10 km+ 4.800 ft 260°   260° 8 kt METAR EDDG 171220Z 26008KT 230V290 9999 BKN048 19/13 Q1022 NOSIG
13:50
V
19 °C 10 km+ 4.800 ft 260°   260° 7 kt METAR EDDG 171150Z 26007KT 9999 BKN048 19/12 Q1021 NOSIG
13:20
V
19 °C 10 km+ 4.800 ft 260°   260° 5 kt METAR EDDG 171120Z 26005KT 210V330 9999 BKN048 19/12 Q1021 NOSIG
12:50
V
20 °C 10 km+ - 300°   300° 7 kt METAR EDDG 171050Z 30007KT 260V340 9999 FEW040 20/11 Q1022 NOSIG
12:20
V
21 °C 10 km+ - 290°   290° 9 kt METAR EDDG 171020Z 29009KT 260V320 CAVOK 21/11 Q1021 NOSIG
11:50
V
20 °C 10 km+ - 280°   280° 7 kt METAR EDDG 170950Z 28007KT 250V320 CAVOK 20/10 Q1021 NOSIG
11:20
V
20 °C 10 km+ - 290°   290° 7 kt METAR EDDG 170920Z 29007KT CAVOK 20/10 Q1021 NOSIG
10:50
V
21 °C 10 km+ - 290°   290° 7 kt METAR EDDG 170850Z 29007KT 260V340 CAVOK 21/11 Q1021 NOSIG
10:20
V
20 °C 10 km+ - 270°   270° 8 kt METAR EDDG 170820Z 27008KT 220V320 CAVOK 20/11 Q1021 NOSIG
09:50
V
20 °C 10 km+ - 250°   250° 6 kt METAR EDDG 170750Z 25006KT 210V290 CAVOK 20/12 Q1021 NOSIG
09:20
V
19 °C 10 km+ - 220°   220° 5 kt METAR EDDG 170720Z 22005KT 170V260 CAVOK 19/13 Q1020 NOSIG
08:50
V
18 °C 10 km+ - 230°   230° 4 kt METAR EDDG 170650Z 23004KT 160V260 CAVOK 18/13 Q1020 NOSIG
08:20
V
17 °C 10 km+ - 160°   160° 3 kt METAR EDDG 170620Z 16003KT 120V220 CAVOK 17/14 Q1020 NOSIG
07:50
V
15 °C 10 km+ - Var   Var 2 kt METAR EDDG 170550Z VRB02KT CAVOK 15/13 Q1020 NOSIG
07:20
V
14 °C 10 km+ - 130°   130° 2 kt METAR EDDG 170520Z 13002KT CAVOK 14/12 Q1020 NOSIG
06:50
V
13 °C 10 km+ - Var   Var 2 kt METAR EDDG 170450Z VRB02KT CAVOK 13/13 Q1020 NOSIG
06:20
M
10 °C 7 km - Var   Var 1 kt METAR EDDG 170420Z VRB01KT 7000 0900NW R25/P2000N BCFG NSC 10/10 Q1020 TEMPO 4000
05:50
V
10 °C 8 km - 130°   130° 1 kt METAR EDDG 170350Z 13001KT 8000 0900NW R25/1600D BCFG NSC 10/10 Q1020 TEMPO 4000
05:20
V
10 °C 8 km - Var   000° 0 kt METAR EDDG 170320Z 00000KT 8000 0700NW R25/0800U BCFG NSC 10/10 Q1020 TEMPO 4000
04:50
V
10 °C 10 km+ - Var   Var 1 kt METAR EDDG 170250Z VRB01KT 9999 0700NW R25/0650D BCFG NSC 10/10 Q1019 NOSIG
04:20
V
11 °C 10 km+ - 140°   140° 1 kt METAR EDDG 170220Z 14001KT 9999 0900NW R25/0800D BCFG NSC 11/11 Q1019 NOSIG
03:50
V
11 °C 10 km+ - Var   Var 1 kt METAR EDDG 170150Z VRB01KT CAVOK 11/11 Q1020 NOSIG
03:20
V
12 °C 10 km+ - Var   Var 2 kt METAR EDDG 170120Z VRB02KT 9999 FEW048 12/12 Q1019 NOSIG
02:50
V
12 °C 10 km+ - Var   Var 2 kt METAR EDDG 170050Z VRB02KT 9999 SCT048 12/12 Q1019 NOSIG
02:20
V
12 °C 10 km+ - Var   Var 2 kt METAR EDDG 170020Z VRB02KT 9999 SCT048 12/12 Q1019 NOSIG
01:50
V
12 °C 10 km+ - Var   Var 1 kt METAR EDDG 162350Z VRB01KT CAVOK 12/12 Q1020 NOSIG
01:20
V
13 °C 10 km+ - Var   Var 1 kt METAR EDDG 162320Z VRB01KT CAVOK 13/12 Q1019 NOSIG
00:50
V
13 °C 10 km+ - 220°   220° 3 kt METAR EDDG 162250Z 22003KT 170V260 CAVOK 13/12 Q1019 NOSIG
00:20
V
14 °C 10 km+ - Var   Var 2 kt METAR EDDG 162220Z VRB02KT CAVOK 14/12 Q1019 NOSIG

16 de maio de 2022

Tempo Código Clima Temp. Visão Nuvens Vento METAR/SPECI
23:50
V
16 °C 10 km+ - 220°   220° 4 kt METAR EDDG 162150Z 22004KT 200V260 CAVOK 16/13 Q1019 NOSIG
23:20
V
15 °C 10 km+ - 250°   250° 3 kt METAR EDDG 162120Z 25003KT 9999 FEW023 15/14 Q1019 NOSIG
22:50
V
16 °C 10 km+ - 260°   260° 4 kt METAR EDDG 162050Z 26004KT 9999 FEW019 16/15 Q1019 NOSIG
22:20
V
17 °C 10 km+ - Var   Var 2 kt METAR EDDG 162020Z VRB02KT 9999 FEW017 17/16 Q1019 NOSIG
21:50
V
17 °C 10 km+ - 270°   270° 3 kt METAR EDDG 161950Z 27003KT 250V310 9999 SCT016 17/16 Q1018 NOSIG
21:20
M
18 °C 10 km+ 1.800 ft 260°   260° 5 kt METAR EDDG 161920Z 26005KT 9999 FEW015 BKN018 18/16 Q1018 NOSIG
20:50
V
18 °C 10 km+ - 270°   270° 7 kt METAR EDDG 161850Z 27007KT 9999 SCT017 SCT044 18/16 Q1018 NOSIG
20:20
V
18 °C 10 km+ 3.800 ft 260°   260° 6 kt METAR EDDG 161820Z 26006KT 9999 -RA FEW017 BKN038 18/16 Q1017 NOSIG
19:50
V
19 °C 10 km+ 3.200 ft 270°   270° 13 kt METAR EDDG 161750Z 27013KT 9999 FEW015 BKN032 19/16 Q1017 NOSIG
19:20
V
19 °C 10 km+ - 240°   240° 12 kt METAR EDDG 161720Z 24012KT 9999 -SHRA SCT015 SCT040CB 19/17 Q1017 NOSIG
18:50
V
20 °C 10 km+ - 250°   250° 11 kt METAR EDDG 161650Z 25011KT 9999 -SHRA FEW048CB 20/17 Q1016 NOSIG
18:20
V
21 °C 10 km+ - 240°   240° 13 kt METAR EDDG 161620Z 24013KT 9999 -SHRA FEW060CB 21/17 Q1016 NOSIG
17:50
V
22 °C 10 km+ - 220°   220° 7 kt METAR EDDG 161550Z 22007KT 170V260 9999 -SHRA FEW060CB 22/14 Q1015 NOSIG
17:20
V
22 °C 10 km+ - 190°   190° 4 kt METAR EDDG 161520Z 19004KT 160V220 9999 -SHRA FEW060CB 22/15 Q1015 NOSIG
16:50
V
23 °C 10 km+ - 180°   180° 4 kt METAR EDDG 161450Z 18004KT 150V210 9999 -SHRA FEW060CB 23/14 Q1015 NOSIG
16:20
V
23 °C 10 km+ - Var   Var 2 kt METAR EDDG 161420Z VRB02KT CAVOK 23/13 Q1015 NOSIG
15:50
V
23 °C 10 km+ - 210°   210° 3 kt METAR EDDG 161350Z 21003KT 140V280 CAVOK 23/13 Q1015 NOSIG
15:20
V
23 °C 10 km+ - 230°   230° 4 kt METAR EDDG 161320Z 23004KT 170V270 9999 FEW060CB 23/13 Q1015 NOSIG
14:50
V
23 °C 10 km+ - 230°   230° 6 kt METAR EDDG 161250Z 23006KT 200V260 9999 -SHRA FEW060CB 23/13 Q1015 NOSIG
14:20
V
24 °C 10 km+ - 240°   240° 6 kt METAR EDDG 161220Z 24006KT 180V270 9999 FEW060CB 24/12 Q1015 NOSIG
13:50
V
24 °C 10 km+ - 220°   220° 5 kt METAR EDDG 161150Z 22005KT 170V270 9999 FEW060CB 24/12 Q1015 NOSIG
13:20
V
24 °C 10 km+ - 200°   200° 5 kt METAR EDDG 161120Z 20005KT 150V230 9999 -SHRA FEW060CB 24/11 Q1015 NOSIG
12:50
V
24 °C 10 km+ - 170°   170° 4 kt METAR EDDG 161050Z 17004KT 130V220 CAVOK 24/12 Q1015 NOSIG
12:20
V
24 °C 10 km+ - 180°   180° 4 kt METAR EDDG 161020Z 18004KT 110V230 CAVOK 24/11 Q1015 NOSIG
11:50
V
23 °C 10 km+ - 170°   170° 6 kt METAR EDDG 160950Z 17006KT 140V230 CAVOK 23/10 Q1015 NOSIG
11:20
V
22 °C 10 km+ - 180°   180° 7 kt METAR EDDG 160920Z 18007KT 140V220 CAVOK 22/11 Q1015 NOSIG
10:50
V
22 °C 10 km+ - 160°   160° 6 kt METAR EDDG 160850Z 16006KT 130V190 CAVOK 22/11 Q1015 NOSIG
10:20
V
22 °C 10 km+ - 100°   100° 5 kt METAR EDDG 160820Z 10005KT 040V160 CAVOK 22/11 Q1014 NOSIG
09:50
V
22 °C 10 km+ - 130°   130° 5 kt METAR EDDG 160750Z 13005KT 030V190 CAVOK 22/11 Q1014 NOSIG
09:20
V
21 °C 10 km+ - 120°   120° 6 kt METAR EDDG 160720Z 12006KT 060V160 CAVOK 21/10 Q1014 NOSIG
08:50
V
19 °C 10 km+ - 100°   100° 6 kt METAR EDDG 160650Z 10006KT 030V170 CAVOK 19/09 Q1014 NOSIG
08:20
V
19 °C 10 km+ - 110°   110° 4 kt METAR EDDG 160620Z 11004KT 010V180 CAVOK 19/09 Q1014 NOSIG
07:50
V
18 °C 10 km+ - Var   Var 3 kt METAR EDDG 160550Z VRB03KT CAVOK 18/09 Q1014 NOSIG
07:20
V
17 °C 10 km+ - Var   Var 3 kt METAR EDDG 160520Z VRB03KT CAVOK 17/08 Q1014 NOSIG
06:50
V
16 °C 10 km+ - Var   Var 5 kt METAR EDDG 160450Z VRB05KT CAVOK 16/08 Q1014 NOSIG
06:20
V
15 °C 10 km+ - Var   Var 4 kt METAR EDDG 160420Z VRB04KT CAVOK 15/08 Q1014 NOSIG
05:50
V
15 °C 10 km+ - 090°   090° 4 kt METAR EDDG 160350Z 09004KT 030V170 CAVOK 15/08 Q1014 NOSIG
05:20
V
15 °C 10 km+ - Var   Var 4 kt METAR EDDG 160320Z VRB04KT CAVOK 15/08 Q1015 NOSIG
04:50
V
15 °C 10 km+ - 100°   100° 4 kt METAR EDDG 160250Z 10004KT 050V200 CAVOK 15/08 Q1015 NOSIG
04:20
V
15 °C 10 km+ - 090°   090° 5 kt METAR EDDG 160220Z 09005KT 030V170 CAVOK 15/08 Q1015 NOSIG
03:50
V
15 °C 10 km+ - 100°   100° 4 kt METAR EDDG 160150Z 10004KT 040V190 CAVOK 15/09 Q1015 NOSIG
03:20
V
16 °C 10 km+ - Var   Var 4 kt METAR EDDG 160120Z VRB04KT CAVOK 16/09 Q1016 NOSIG
02:50
V
16 °C 10 km+ - Var   Var 4 kt METAR EDDG 160050Z VRB04KT CAVOK 16/09 Q1016 NOSIG
02:20
V
16 °C 10 km+ - Var   Var 4 kt METAR EDDG 160020Z VRB04KT CAVOK 16/09 Q1016 NOSIG
01:50
V
16 °C 10 km+ - Var   Var 3 kt METAR EDDG 152350Z VRB03KT CAVOK 16/09 Q1016 NOSIG
01:20
V
16 °C 10 km+ - 090°   090° 3 kt METAR EDDG 152320Z 09003KT 030V160 CAVOK 16/09 Q1017 NOSIG
00:50
V
16 °C 10 km+ - 080°   080° 3 kt METAR EDDG 152250Z 08003KT 030V140 CAVOK 16/09 Q1017 NOSIG
00:20
V
17 °C 10 km+ - 080°   080° 3 kt METAR EDDG 152220Z 08003KT 030V150 CAVOK 17/09 Q1017 NOSIG

15 de maio de 2022

Tempo Código Clima Temp. Visão Nuvens Vento METAR/SPECI
23:50
V
17 °C 10 km+ - 070°   070° 4 kt METAR EDDG 152150Z 07004KT 020V110 CAVOK 17/09 Q1017 NOSIG
23:20
V
18 °C 10 km+ - 070°   070° 4 kt METAR EDDG 152120Z 07004KT 020V110 CAVOK 18/09 Q1017 NOSIG
22:50
V
18 °C 10 km+ - 060°   060° 4 kt METAR EDDG 152050Z 06004KT 020V110 CAVOK 18/09 Q1017 NOSIG
22:20
V
18 °C 10 km+ - 060°   060° 3 kt METAR EDDG 152020Z 06003KT 030V100 CAVOK 18/09 Q1017 NOSIG
21:50
V
19 °C 10 km+ - 060°   060° 4 kt METAR EDDG 151950Z 06004KT 020V120 CAVOK 19/09 Q1017 NOSIG
21:20
V
20 °C 10 km+ - 060°   060° 4 kt METAR EDDG 151920Z 06004KT 010V110 CAVOK 20/09 Q1016 NOSIG
20:50
V
21 °C 10 km+ - 060°   060° 4 kt METAR EDDG 151850Z 06004KT 010V110 CAVOK 21/08 Q1016 NOSIG
20:20
V
22 °C 10 km+ - 070°   070° 5 kt METAR EDDG 151820Z 07005KT 330V130 CAVOK 22/08 Q1017 NOSIG
19:50
V
23 °C 10 km+ - Var   Var 6 kt METAR EDDG 151750Z VRB06KT CAVOK 23/08 Q1017 NOSIG
19:20
V
24 °C 10 km+ - 070°   070° 5 kt METAR EDDG 151720Z 07005KT 010V150 CAVOK 24/07 Q1017 NOSIG
18:50
V
24 °C 10 km+ - 060°   060° 6 kt METAR EDDG 151650Z 06006KT 010V120 CAVOK 24/06 Q1017 NOSIG
18:20
V
24 °C 10 km+ - Var   Var 6 kt METAR EDDG 151620Z VRB06KT CAVOK 24/07 Q1017 NOSIG
17:50
V
24 °C 10 km+ - 060°   060° 6 kt METAR EDDG 151550Z 06006KT 360V130 CAVOK 24/07 Q1017 NOSIG
17:20
V
24 °C 10 km+ - Var   Var 6 kt METAR EDDG 151520Z VRB06KT CAVOK 24/07 Q1018 NOSIG
16:50
V
24 °C 10 km+ - 080°   080° 6 kt METAR EDDG 151450Z 08006KT 020V170 CAVOK 24/07 Q1018 NOSIG
Dados mais antigos

Baixe nosso aplicativo

Fácil acesso a todas as condições meteorológicas da aviação no seu celular e no seu tablet.
Com muitos recursos não disponíveis no site, como suporte offline e uma lista pessoal de aeroportos.